EndleSS Dreams — WDB2165 — position and weather

sailwx.info

Track history (hours):
 
Tides and Currents Weather Stations Pressure Air Temp Water Temp Dewpoint Dewpoint Depression Visibility Wind Speed Wind Dir Waves Ship Positions

EndleSS Dreams

Owner: Charter Memories, Newport Beach, CA. More information available from US FCC via Universal Licensing System and Coast Guard Vessel Documentation Center.

Last reported at 2018-Apr-18 22:46 UTC. Time now 2018-Apr-20 14:25 UTC.
Position N 33°37' W 117°55'.

Length 47 m; draft 3 m.

Type: Ship (hazmat cat D). MMSI: 366872980.

Date/timePositionNaut miles runAvg speedWind from/ knotsBaromVisibWave heightAir tempDewpointWater temp
2018-Apr-18 22:46N 33°37' W 117°55'0 0.0
2018-Apr-18 22:26N 33°37' W 117°55'0 0.0
2018-Apr-18 19:56N 33°37' W 117°55'0 0.0
2018-Apr-18 07:13N 33°37' W 117°55'0 0.0
2018-Apr-17 22:34N 33°37' W 117°55'0 0.0
2018-Apr-16 04:01N 33°37' W 117°55'0 0.0
2018-Apr-16 03:58N 33°37' W 117°55'0 0.0
2018-Apr-16 03:29N 33°37' W 117°55'0 0.0
2018-Apr-16 03:00N 33°37' W 117°55'2 2.0
2018-Apr-16 01:46N 33°36' W 117°53'2 2.3
2018-Apr-16 00:42N 33°37' W 117°55'0 0.0
2018-Apr-16 00:30N 33°37' W 117°55'0 0.0
2018-Apr-15 23:59N 33°37' W 117°55'0 0.0
2018-Apr-15 23:30N 33°37' W 117°55'0 0.0
2018-Apr-15 22:19N 33°37' W 117°55'0 0.0
2018-Apr-15 21:52N 33°37' W 117°55'0 0.0
2018-Apr-15 21:27N 33°37' W 117°55'0 0.0
2018-Apr-15 21:00N 33°37' W 117°55'2 2.3
2018-Apr-15 20:09N 33°36' W 117°53'1 2.7
2018-Apr-15 19:54N 33°36' W 117°53'2 3.3
2018-Apr-15 19:11N 33°37' W 117°55'0 1.6
2018-Apr-15 19:00N 33°37' W 117°55'0 0.0
2018-Apr-15 18:27N 33°37' W 117°55'0 0.0
2018-Apr-15 18:00N 33°37' W 117°55'0 0.0
2018-Apr-15 17:30N 33°37' W 117°55'0 0.0
2018-Apr-15 17:00N 33°37' W 117°55'0 0.0
2018-Apr-15 16:30N 33°37' W 117°55'0 0.0
2018-Apr-15 15:33N 33°37' W 117°55'0 0.0
2018-Apr-15 15:29N 33°37' W 117°55'0 0.0
2018-Apr-15 14:12N 33°37' W 117°55'0 0.0
2018-Apr-15 13:51N 33°37' W 117°55'0 0.0
2018-Apr-15 09:02N 33°37' W 117°55'0 0.0
2018-Apr-15 08:50N 33°37' W 117°55'0 0.0
2018-Apr-15 08:30N 33°37' W 117°55'0 0.0
2018-Apr-15 08:00N 33°37' W 117°55'0 0.0
2018-Apr-15 07:28N 33°37' W 117°55'1 0.2
2018-Apr-15 05:08N 33°37' W 117°55'0 1.5
2018-Apr-15 04:54N 33°37' W 117°54'1 0.2
2018-Apr-14 23:20N 33°37' W 117°55'0 0.0
2018-Apr-14 06:46N 33°37' W 117°55'0 0.0
2018-Apr-14 06:25N 33°37' W 117°55'0 0.0
2018-Apr-14 05:59N 33°37' W 117°55'0 0.0
2018-Apr-14 05:29N 33°37' W 117°55'0 0.0
2018-Apr-13 22:15N 33°37' W 117°55'0 0.0
2018-Apr-13 22:00N 33°37' W 117°55'0 0.0
2018-Apr-13 21:26N 33°37' W 117°55'0 0.0
2018-Apr-13 17:29N 33°37' W 117°55'12 3.6
2018-Apr-13 14:16N 33°43' W 118°07'2 9.4
2018-Apr-13 14:00N 33°43' W 118°10'510.1
2018-Apr-13 13:30N 33°43' W 118°16'1 1.1
2018-Apr-13 13:00N 33°43' W 118°17'0 0.0
2018-Apr-13 12:30N 33°43' W 118°17'0 0.0
2018-Apr-13 12:00N 33°43' W 118°17'0 0.0
2018-Apr-13 11:30N 33°43' W 118°17'0 0.0
2018-Apr-13 11:00N 33°43' W 118°17'0 0.0
2018-Apr-13 10:30N 33°43' W 118°17'0 0.0
2018-Apr-13 10:00N 33°43' W 118°17'0 0.0
2018-Apr-13 09:30N 33°43' W 118°17'0 0.0
2018-Apr-13 09:00N 33°43' W 118°17'0 0.0
2018-Apr-13 08:30N 33°43' W 118°17'0 0.0
2018-Apr-13 08:00N 33°43' W 118°17'0 0.0
2018-Apr-13 07:30N 33°43' W 118°17'0 0.0
2018-Apr-13 07:00N 33°43' W 118°17'0 0.0
2018-Apr-13 06:30N 33°43' W 118°17'0 0.0
2018-Apr-13 06:00N 33°43' W 118°17'0 0.0
2018-Apr-13 05:30N 33°43' W 118°17'0 0.0
2018-Apr-13 05:00N 33°43' W 118°17'0 0.0
2018-Apr-13 04:30N 33°43' W 118°17'0 0.0
2018-Apr-13 04:00N 33°43' W 118°17'0 0.0
2018-Apr-13 03:31N 33°43' W 118°17'0 0.0
2018-Apr-13 03:00N 33°43' W 118°17'0 0.0
2018-Apr-13 02:30N 33°43' W 118°17'0 0.0
2018-Apr-13 02:00N 33°43' W 118°17'0 0.0
2018-Apr-13 01:30N 33°43' W 118°17'0 0.0
2018-Apr-13 01:00N 33°43' W 118°17'0 0.0
2018-Apr-13 00:30N 33°43' W 118°17'0 0.0
2018-Apr-13 00:00N 33°43' W 118°17'0 0.0
2018-Apr-12 23:30N 33°43' W 118°17'0 0.0
2018-Apr-12 23:00N 33°43' W 118°17'0 0.0
2018-Apr-12 22:30N 33°43' W 118°17'0 0.0
2018-Apr-12 22:00N 33°43' W 118°17'0 0.0
2018-Apr-12 21:30N 33°43' W 118°17'0 0.0
2018-Apr-12 21:00N 33°43' W 118°17'0 0.0
2018-Apr-12 20:30N 33°43' W 118°17'0 0.0
2018-Apr-12 20:00N 33°43' W 118°17'0 0.0
2018-Apr-12 19:30N 33°43' W 118°17'0 0.6
2018-Apr-12 19:00N 33°43' W 118°16'0 0.0
2018-Apr-12 18:30N 33°43' W 118°16'0 0.0
2018-Apr-12 18:00N 33°43' W 118°16'0 0.0
2018-Apr-12 17:30N 33°43' W 118°16'0 0.0
2018-Apr-12 17:00N 33°43' W 118°16'0 0.0
2018-Apr-12 16:30N 33°43' W 118°16'0 0.0
2018-Apr-12 16:00N 33°43' W 118°16'0 0.0
2018-Apr-12 15:30N 33°43' W 118°16'0 0.0
2018-Apr-12 15:00N 33°43' W 118°16'0 0.0
2018-Apr-12 14:30N 33°43' W 118°16'0 0.0
2018-Apr-12 14:00N 33°43' W 118°16'0 0.5
2018-Apr-12 13:30N 33°43' W 118°17'0 0.0
2018-Apr-12 13:00N 33°43' W 118°17'0 0.0
2018-Apr-12 12:31N 33°43' W 118°17'0 0.0
2018-Apr-12 04:12N 33°43' W 118°17'0 0.0
2018-Apr-12 04:00N 33°43' W 118°17'0 0.7
2018-Apr-12 03:29N 33°43' W 118°16'0 0.3
2018-Apr-12 02:57N 33°43' W 118°16'1 1.8
2018-Apr-12 02:30N 33°43' W 118°16'0 0.4
2018-Apr-12 02:00N 33°43' W 118°16'0 0.2
2018-Apr-12 01:30N 33°43' W 118°16'0 0.6
2018-Apr-12 01:00N 33°43' W 118°16'0 0.1
2018-Apr-12 00:30N 33°43' W 118°16'0 0.5
2018-Apr-12 00:00N 33°43' W 118°15'1 1.0
2018-Apr-11 23:30N 33°43' W 118°16'0 0.7
2018-Apr-11 22:59N 33°43' W 118°16'0 0.7
2018-Apr-11 22:30N 33°43' W 118°16'0 0.6
2018-Apr-11 22:00N 33°43' W 118°16'0 1.0
2018-Apr-11 21:30N 33°43' W 118°16'0 0.0
2018-Apr-11 21:00N 33°43' W 118°16'0 0.0
2018-Apr-11 20:30N 33°43' W 118°16'0 0.0
2018-Apr-11 19:59N 33°43' W 118°16'3 5.6
2018-Apr-11 19:30N 33°43' W 118°13'5 9.6
2018-Apr-11 19:00N 33°44' W 118°07'0 0.2
2018-Apr-11 18:30N 33°44' W 118°07'2 4.3
2018-Apr-11 18:00N 33°44' W 118°10'2 3.1
2018-Apr-11 17:30N 33°44' W 118°08'1 1.4
2018-Apr-11 17:00N 33°44' W 118°09'0 0.1
2018-Apr-11 16:30N 33°44' W 118°09'0 0.4
2018-Apr-11 16:00N 33°44' W 118°09'2 3.7
2018-Apr-11 15:30N 33°44' W 118°11'5 9.5
2018-Apr-11 15:00N 33°43' W 118°16'0 0.1
2018-Apr-11 14:30N 33°43' W 118°16'0 0.0
2018-Apr-11 14:00N 33°43' W 118°16'0 0.0
2018-Apr-11 13:30N 33°43' W 118°16'0 0.0
2018-Apr-11 12:43N 33°43' W 118°16'0 0.4
2018-Apr-11 12:29N 33°43' W 118°16'0 0.7
2018-Apr-11 12:00N 33°43' W 118°17'0 0.0
2018-Apr-11 11:30N 33°43' W 118°17'0 0.0
2018-Apr-11 11:00N 33°43' W 118°17'0 0.0
2018-Apr-11 10:30N 33°43' W 118°17'0 0.0
2018-Apr-11 10:00N 33°43' W 118°17'0 0.0
2018-Apr-11 09:30N 33°43' W 118°17'0 0.0
2018-Apr-11 09:00N 33°43' W 118°17'0 0.0
2018-Apr-11 08:30N 33°43' W 118°17'0 0.0
2018-Apr-11 08:00N 33°43' W 118°17'0 0.0
2018-Apr-11 07:28N 33°43' W 118°17'0 0.0
2018-Apr-11 06:59N 33°43' W 118°17'0 0.0
2018-Apr-11 06:29N 33°43' W 118°17'0 0.0
2018-Apr-11 05:58N 33°43' W 118°17'0 0.0
2018-Apr-11 05:17N 33°43' W 118°17'0 0.0
2018-Apr-11 05:00N 33°43' W 118°17'0 0.0
2018-Apr-11 04:30N 33°43' W 118°17'0 0.0
2018-Apr-11 03:59N 33°43' W 118°17'0 0.0
2018-Apr-11 03:30N 33°43' W 118°17'0 0.0
2018-Apr-11 03:00N 33°43' W 118°17'0 0.0
2018-Apr-11 02:30N 33°43' W 118°17'0 0.0
2018-Apr-11 02:00N 33°43' W 118°17'0 0.0
2018-Apr-11 01:30N 33°43' W 118°17'0 0.0
2018-Apr-11 01:00N 33°43' W 118°17'0 0.0
2018-Apr-11 00:30N 33°43' W 118°17'0 0.0
2018-Apr-11 00:00N 33°43' W 118°17'0 0.0
2018-Apr-10 23:30N 33°43' W 118°17'0 0.0
2018-Apr-10 23:00N 33°43' W 118°17'0 0.6
2018-Apr-10 22:30N 33°43' W 118°16'0 0.0
2018-Apr-10 22:00N 33°43' W 118°16'0 0.0
2018-Apr-10 21:30N 33°43' W 118°16'0 0.0
2018-Apr-10 21:00N 33°43' W 118°16'0 0.0
2018-Apr-10 20:30N 33°43' W 118°16'0 0.0
2018-Apr-10 20:00N 33°43' W 118°16'0 0.0
2018-Apr-10 19:30N 33°43' W 118°16'0 0.0
2018-Apr-10 19:00N 33°43' W 118°16'0 0.0
2018-Apr-10 18:30N 33°43' W 118°16'0 0.0
2018-Apr-10 18:00N 33°43' W 118°16'0 0.0
2018-Apr-10 17:30N 33°43' W 118°16'0 0.0
2018-Apr-10 17:00N 33°43' W 118°16'0 0.0
2018-Apr-10 16:30N 33°43' W 118°16'0 0.0
2018-Apr-10 16:00N 33°43' W 118°16'0 0.0
2018-Apr-10 15:30N 33°43' W 118°16'0 0.0
2018-Apr-10 15:00N 33°43' W 118°16'0 0.0
2018-Apr-10 14:30N 33°43' W 118°16'0 0.0
2018-Apr-10 14:00N 33°43' W 118°16'0 0.6
2018-Apr-10 13:30N 33°43' W 118°17'0 0.2
2018-Apr-10 13:00N 33°43' W 118°17'0 0.0
2018-Apr-10 12:30N 33°43' W 118°17'0 0.0
2018-Apr-10 12:00N 33°43' W 118°17'0 0.0
2018-Apr-10 11:30N 33°43' W 118°17'0 0.0
2018-Apr-10 11:00N 33°43' W 118°17'0 0.0
2018-Apr-10 10:30N 33°43' W 118°17'0 0.0
2018-Apr-10 10:00N 33°43' W 118°17'0 0.0
2018-Apr-10 09:30N 33°43' W 118°17'0 0.0
2018-Apr-10 09:00N 33°43' W 118°17'0 0.0
2018-Apr-10 08:30N 33°43' W 118°17'0 0.0
2018-Apr-10 07:58N 33°43' W 118°17'0 0.0
2018-Apr-10 07:27N 33°43' W 118°17'0 0.0
2018-Apr-10 07:00N 33°43' W 118°17'0 0.0
2018-Apr-10 06:30N 33°43' W 118°17'0 0.0
2018-Apr-10 06:00N 33°43' W 118°17'0 0.0
2018-Apr-10 05:30N 33°43' W 118°17'0 0.0
2018-Apr-10 05:00N 33°43' W 118°17'0 0.0
2018-Apr-10 04:30N 33°43' W 118°17'0 0.0
2018-Apr-10 04:00N 33°43' W 118°17'0 0.0
2018-Apr-10 03:30N 33°43' W 118°17'0 0.0
2018-Apr-10 03:00N 33°43' W 118°17'0 0.0
2018-Apr-10 02:30N 33°43' W 118°17'0 0.0
2018-Apr-10 02:00N 33°43' W 118°17'0 0.0
2018-Apr-10 01:30N 33°43' W 118°17'0 0.0
2018-Apr-10 01:00N 33°43' W 118°17'0 0.0
2018-Apr-10 00:30N 33°43' W 118°17'0 0.0
2018-Apr-10 00:00N 33°43' W 118°17'0 0.0
2018-Apr-09 23:30N 33°43' W 118°17'0 0.0
2018-Apr-09 23:00N 33°43' W 118°17'0 0.0
2018-Apr-09 22:30N 33°43' W 118°17'0 0.0
2018-Apr-09 22:00N 33°43' W 118°17'0 0.0
2018-Apr-09 21:30N 33°43' W 118°17'0 0.0
2018-Apr-09 21:00N 33°43' W 118°17'0 0.0
2018-Apr-09 20:30N 33°43' W 118°17'0 0.0
2018-Apr-09 20:00N 33°43' W 118°17'0 0.0
2018-Apr-09 19:30N 33°43' W 118°17'1 1.7
2018-Apr-09 19:00N 33°43' W 118°16'5 9.5
2018-Apr-09 18:30N 33°41' W 118°11'510.4
2018-Apr-09 18:00N 33°39' W 118°05'510.3
2018-Apr-09 17:30N 33°37' W 117°59'510.2
2018-Apr-09 17:00N 33°35' W 117°53'2 3.6
2018-Apr-09 16:20N 33°37' W 117°55'0 0.1
2018-Apr-09 16:00N 33°37' W 117°55'0 0.0
2018-Apr-09 15:30N 33°37' W 117°55'0 0.0
2018-Apr-09 12:02N 33°37' W 117°55'0 0.0
2018-Apr-09 11:58N 33°37' W 117°55'0 0.0
2018-Apr-09 11:27N 33°37' W 117°55'0 0.0
2018-Apr-09 10:29N 33°37' W 117°55'0 0.0
2018-Apr-09 09:14N 33°37' W 117°55'0 0.0
2018-Apr-09 09:00N 33°37' W 117°55'0 0.0
2018-Apr-09 08:30N 33°37' W 117°55'0 0.0
2018-Apr-09 08:00N 33°37' W 117°55'0 0.0
2018-Apr-09 07:29N 33°37' W 117°55'0 0.0
2018-Apr-09 07:00N 33°37' W 117°55'0 0.0
2018-Apr-09 06:29N 33°37' W 117°55'0 0.0
2018-Apr-09 05:58N 33°37' W 117°55'0 0.0
2018-Apr-09 05:29N 33°37' W 117°55'0 0.0
2018-Apr-09 01:06N 33°37' W 117°55'0 0.0
2018-Apr-09 01:00N 33°37' W 117°55'  
Track history (hours):
 
Tides and Currents Weather Stations Pressure Air Temp Water Temp Dewpoint Dewpoint Depression Visibility Wind Speed Wind Dir Waves Ship Positions

EndleSS Dreams

Owner: Charter Memories, Newport Beach, CA. More information available from US FCC via Universal Licensing System and Coast Guard Vessel Documentation Center.

Last reported at 2018-Apr-18 22:46 UTC. Time now 2018-Apr-20 14:25 UTC.
Position N 33°37' W 117°55'.

Length 47 m; draft 3 m.

Type: Ship (hazmat cat D). MMSI: 366872980.

Date/timePositionNaut miles runAvg speedWind from/ knotsBaromVisibWave heightAir tempDewpointWater temp
2018-Apr-18 22:46N 33°37' W 117°55'0 0.0
2018-Apr-18 22:26N 33°37' W 117°55'0 0.0
2018-Apr-18 19:56N 33°37' W 117°55'0 0.0
2018-Apr-18 07:13N 33°37' W 117°55'0 0.0
2018-Apr-17 22:34N 33°37' W 117°55'0 0.0
2018-Apr-16 04:01N 33°37' W 117°55'0 0.0
2018-Apr-16 03:58N 33°37' W 117°55'0 0.0
2018-Apr-16 03:29N 33°37' W 117°55'0 0.0
2018-Apr-16 03:00N 33°37' W 117°55'2 2.0
2018-Apr-16 01:46N 33°36' W 117°53'2 2.3
2018-Apr-16 00:42N 33°37' W 117°55'0 0.0
2018-Apr-16 00:30N 33°37' W 117°55'0 0.0
2018-Apr-15 23:59N 33°37' W 117°55'0 0.0
2018-Apr-15 23:30N 33°37' W 117°55'0 0.0
2018-Apr-15 22:19N 33°37' W 117°55'0 0.0
2018-Apr-15 21:52N 33°37' W 117°55'0 0.0
2018-Apr-15 21:27N 33°37' W 117°55'0 0.0
2018-Apr-15 21:00N 33°37' W 117°55'2 2.3
2018-Apr-15 20:09N 33°36' W 117°53'1 2.7
2018-Apr-15 19:54N 33°36' W 117°53'2 3.3
2018-Apr-15 19:11N 33°37' W 117°55'0 1.6
2018-Apr-15 19:00N 33°37' W 117°55'0 0.0
2018-Apr-15 18:27N 33°37' W 117°55'0 0.0
2018-Apr-15 18:00N 33°37' W 117°55'0 0.0
2018-Apr-15 17:30N 33°37' W 117°55'0 0.0
2018-Apr-15 17:00N 33°37' W 117°55'0 0.0
2018-Apr-15 16:30N 33°37' W 117°55'0 0.0
2018-Apr-15 15:33N 33°37' W 117°55'0 0.0
2018-Apr-15 15:29N 33°37' W 117°55'0 0.0
2018-Apr-15 14:12N 33°37' W 117°55'0 0.0
2018-Apr-15 13:51N 33°37' W 117°55'0 0.0
2018-Apr-15 09:02N 33°37' W 117°55'0 0.0
2018-Apr-15 08:50N 33°37' W 117°55'0 0.0
2018-Apr-15 08:30N 33°37' W 117°55'0 0.0
2018-Apr-15 08:00N 33°37' W 117°55'0 0.0
2018-Apr-15 07:28N 33°37' W 117°55'1 0.2
2018-Apr-15 05:08N 33°37' W 117°55'0 1.5
2018-Apr-15 04:54N 33°37' W 117°54'1 0.2
2018-Apr-14 23:20N 33°37' W 117°55'0 0.0
2018-Apr-14 06:46N 33°37' W 117°55'0 0.0
2018-Apr-14 06:25N 33°37' W 117°55'0 0.0
2018-Apr-14 05:59N 33°37' W 117°55'0 0.0
2018-Apr-14 05:29N 33°37' W 117°55'0 0.0
2018-Apr-13 22:15N 33°37' W 117°55'0 0.0
2018-Apr-13 22:00N 33°37' W 117°55'0 0.0
2018-Apr-13 21:26N 33°37' W 117°55'0 0.0
2018-Apr-13 17:29N 33°37' W 117°55'12 3.6
2018-Apr-13 14:16N 33°43' W 118°07'2 9.4
2018-Apr-13 14:00N 33°43' W 118°10'510.1
2018-Apr-13 13:30N 33°43' W 118°16'1 1.1
2018-Apr-13 13:00N 33°43' W 118°17'0 0.0
2018-Apr-13 12:30N 33°43' W 118°17'0 0.0
2018-Apr-13 12:00N 33°43' W 118°17'0 0.0
2018-Apr-13 11:30N 33°43' W 118°17'0 0.0
2018-Apr-13 11:00N 33°43' W 118°17'0 0.0
2018-Apr-13 10:30N 33°43' W 118°17'0 0.0
2018-Apr-13 10:00N 33°43' W 118°17'0 0.0
2018-Apr-13 09:30N 33°43' W 118°17'0 0.0
2018-Apr-13 09:00N 33°43' W 118°17'0 0.0
2018-Apr-13 08:30N 33°43' W 118°17'0 0.0
2018-Apr-13 08:00N 33°43' W 118°17'0 0.0
2018-Apr-13 07:30N 33°43' W 118°17'0 0.0
2018-Apr-13 07:00N 33°43' W 118°17'0 0.0
2018-Apr-13 06:30N 33°43' W 118°17'0 0.0
2018-Apr-13 06:00N 33°43' W 118°17'0 0.0
2018-Apr-13 05:30N 33°43' W 118°17'0 0.0
2018-Apr-13 05:00N 33°43' W 118°17'0 0.0
2018-Apr-13 04:30N 33°43' W 118°17'0 0.0
2018-Apr-13 04:00N 33°43' W 118°17'0 0.0
2018-Apr-13 03:31N 33°43' W 118°17'0 0.0
2018-Apr-13 03:00N 33°43' W 118°17'0 0.0
2018-Apr-13 02:30N 33°43' W 118°17'0 0.0
2018-Apr-13 02:00N 33°43' W 118°17'0 0.0
2018-Apr-13 01:30N 33°43' W 118°17'0 0.0
2018-Apr-13 01:00N 33°43' W 118°17'0 0.0
2018-Apr-13 00:30N 33°43' W 118°17'0 0.0
2018-Apr-13 00:00N 33°43' W 118°17'0 0.0
2018-Apr-12 23:30N 33°43' W 118°17'0 0.0
2018-Apr-12 23:00N 33°43' W 118°17'0 0.0
2018-Apr-12 22:30N 33°43' W 118°17'0 0.0
2018-Apr-12 22:00N 33°43' W 118°17'0 0.0
2018-Apr-12 21:30N 33°43' W 118°17'0 0.0
2018-Apr-12 21:00N 33°43' W 118°17'0 0.0
2018-Apr-12 20:30N 33°43' W 118°17'0 0.0
2018-Apr-12 20:00N 33°43' W 118°17'0 0.0
2018-Apr-12 19:30N 33°43' W 118°17'0 0.6
2018-Apr-12 19:00N 33°43' W 118°16'0 0.0
2018-Apr-12 18:30N 33°43' W 118°16'0 0.0
2018-Apr-12 18:00N 33°43' W 118°16'0 0.0
2018-Apr-12 17:30N 33°43' W 118°16'0 0.0
2018-Apr-12 17:00N 33°43' W 118°16'0 0.0
2018-Apr-12 16:30N 33°43' W 118°16'0 0.0
2018-Apr-12 16:00N 33°43' W 118°16'0 0.0
2018-Apr-12 15:30N 33°43' W 118°16'0 0.0
2018-Apr-12 15:00N 33°43' W 118°16'0 0.0
2018-Apr-12 14:30N 33°43' W 118°16'0 0.0
2018-Apr-12 14:00N 33°43' W 118°16'0 0.5
2018-Apr-12 13:30N 33°43' W 118°17'0 0.0
2018-Apr-12 13:00N 33°43' W 118°17'0 0.0
2018-Apr-12 12:31N 33°43' W 118°17'0 0.0
2018-Apr-12 04:12N 33°43' W 118°17'0 0.0
2018-Apr-12 04:00N 33°43' W 118°17'0 0.7
2018-Apr-12 03:29N 33°43' W 118°16'0 0.3
2018-Apr-12 02:57N 33°43' W 118°16'1 1.8
2018-Apr-12 02:30N 33°43' W 118°16'0 0.4
2018-Apr-12 02:00N 33°43' W 118°16'0 0.2
2018-Apr-12 01:30N 33°43' W 118°16'0 0.6
2018-Apr-12 01:00N 33°43' W 118°16'0 0.1
2018-Apr-12 00:30N 33°43' W 118°16'0 0.5
2018-Apr-12 00:00N 33°43' W 118°15'1 1.0
2018-Apr-11 23:30N 33°43' W 118°16'0 0.7
2018-Apr-11 22:59N 33°43' W 118°16'0 0.7
2018-Apr-11 22:30N 33°43' W 118°16'0 0.6
2018-Apr-11 22:00N 33°43' W 118°16'0 1.0
2018-Apr-11 21:30N 33°43' W 118°16'0 0.0
2018-Apr-11 21:00N 33°43' W 118°16'0 0.0
2018-Apr-11 20:30N 33°43' W 118°16'0 0.0
2018-Apr-11 19:59N 33°43' W 118°16'3 5.6
2018-Apr-11 19:30N 33°43' W 118°13'5 9.6
2018-Apr-11 19:00N 33°44' W 118°07'0 0.2
2018-Apr-11 18:30N 33°44' W 118°07'2 4.3
2018-Apr-11 18:00N 33°44' W 118°10'2 3.1
2018-Apr-11 17:30N 33°44' W 118°08'1 1.4
2018-Apr-11 17:00N 33°44' W 118°09'0 0.1
2018-Apr-11 16:30N 33°44' W 118°09'0 0.4
2018-Apr-11 16:00N 33°44' W 118°09'2 3.7
2018-Apr-11 15:30N 33°44' W 118°11'5 9.5
2018-Apr-11 15:00N 33°43' W 118°16'0 0.1
2018-Apr-11 14:30N 33°43' W 118°16'0 0.0
2018-Apr-11 14:00N 33°43' W 118°16'0 0.0
2018-Apr-11 13:30N 33°43' W 118°16'0 0.0
2018-Apr-11 12:43N 33°43' W 118°16'0 0.4
2018-Apr-11 12:29N 33°43' W 118°16'0 0.7
2018-Apr-11 12:00N 33°43' W 118°17'0 0.0
2018-Apr-11 11:30N 33°43' W 118°17'0 0.0
2018-Apr-11 11:00N 33°43' W 118°17'0 0.0
2018-Apr-11 10:30N 33°43' W 118°17'0 0.0
2018-Apr-11 10:00N 33°43' W 118°17'0 0.0
2018-Apr-11 09:30N 33°43' W 118°17'0 0.0
2018-Apr-11 09:00N 33°43' W 118°17'0 0.0
2018-Apr-11 08:30N 33°43' W 118°17'0 0.0
2018-Apr-11 08:00N 33°43' W 118°17'0 0.0
2018-Apr-11 07:28N 33°43' W 118°17'0 0.0
2018-Apr-11 06:59N 33°43' W 118°17'0 0.0
2018-Apr-11 06:29N 33°43' W 118°17'0 0.0
2018-Apr-11 05:58N 33°43' W 118°17'0 0.0
2018-Apr-11 05:17N 33°43' W 118°17'0 0.0
2018-Apr-11 05:00N 33°43' W 118°17'0 0.0
2018-Apr-11 04:30N 33°43' W 118°17'0 0.0
2018-Apr-11 03:59N 33°43' W 118°17'0 0.0
2018-Apr-11 03:30N 33°43' W 118°17'0 0.0
2018-Apr-11 03:00N 33°43' W 118°17'0 0.0
2018-Apr-11 02:30N 33°43' W 118°17'0 0.0
2018-Apr-11 02:00N 33°43' W 118°17'0 0.0
2018-Apr-11 01:30N 33°43' W 118°17'0 0.0
2018-Apr-11 01:00N 33°43' W 118°17'0 0.0
2018-Apr-11 00:30N 33°43' W 118°17'0 0.0
2018-Apr-11 00:00N 33°43' W 118°17'0 0.0
2018-Apr-10 23:30N 33°43' W 118°17'0 0.0
2018-Apr-10 23:00N 33°43' W 118°17'0 0.6
2018-Apr-10 22:30N 33°43' W 118°16'0 0.0
2018-Apr-10 22:00N 33°43' W 118°16'0 0.0
2018-Apr-10 21:30N 33°43' W 118°16'0 0.0
2018-Apr-10 21:00N 33°43' W 118°16'0 0.0
2018-Apr-10 20:30N 33°43' W 118°16'0 0.0
2018-Apr-10 20:00N 33°43' W 118°16'0 0.0
2018-Apr-10 19:30N 33°43' W 118°16'0 0.0
2018-Apr-10 19:00N 33°43' W 118°16'0 0.0
2018-Apr-10 18:30N 33°43' W 118°16'0 0.0
2018-Apr-10 18:00N 33°43' W 118°16'0 0.0
2018-Apr-10 17:30N 33°43' W 118°16'0 0.0
2018-Apr-10 17:00N 33°43' W 118°16'0 0.0
2018-Apr-10 16:30N 33°43' W 118°16'0 0.0
2018-Apr-10 16:00N 33°43' W 118°16'0 0.0
2018-Apr-10 15:30N 33°43' W 118°16'0 0.0
2018-Apr-10 15:00N 33°43' W 118°16'0 0.0
2018-Apr-10 14:30N 33°43' W 118°16'0 0.0
2018-Apr-10 14:00N 33°43' W 118°16'0 0.6
2018-Apr-10 13:30N 33°43' W 118°17'0 0.2
2018-Apr-10 13:00N 33°43' W 118°17'0 0.0
2018-Apr-10 12:30N 33°43' W 118°17'0 0.0
2018-Apr-10 12:00N 33°43' W 118°17'0 0.0
2018-Apr-10 11:30N 33°43' W 118°17'0 0.0
2018-Apr-10 11:00N 33°43' W 118°17'0 0.0
2018-Apr-10 10:30N 33°43' W 118°17'0 0.0
2018-Apr-10 10:00N 33°43' W 118°17'0 0.0
2018-Apr-10 09:30N 33°43' W 118°17'0 0.0
2018-Apr-10 09:00N 33°43' W 118°17'0 0.0
2018-Apr-10 08:30N 33°43' W 118°17'0 0.0
2018-Apr-10 07:58N 33°43' W 118°17'0 0.0
2018-Apr-10 07:27N 33°43' W 118°17'0 0.0
2018-Apr-10 07:00N 33°43' W 118°17'0 0.0
2018-Apr-10 06:30N 33°43' W 118°17'0 0.0
2018-Apr-10 06:00N 33°43' W 118°17'0 0.0
2018-Apr-10 05:30N 33°43' W 118°17'0 0.0
2018-Apr-10 05:00N 33°43' W 118°17'0 0.0
2018-Apr-10 04:30N 33°43' W 118°17'0 0.0
2018-Apr-10 04:00N 33°43' W 118°17'0 0.0
2018-Apr-10 03:30N 33°43' W 118°17'0 0.0
2018-Apr-10 03:00N 33°43' W 118°17'0 0.0
2018-Apr-10 02:30N 33°43' W 118°17'0 0.0
2018-Apr-10 02:00N 33°43' W 118°17'0 0.0
2018-Apr-10 01:30N 33°43' W 118°17'0 0.0
2018-Apr-10 01:00N 33°43' W 118°17'0 0.0
2018-Apr-10 00:30N 33°43' W 118°17'0 0.0
2018-Apr-10 00:00N 33°43' W 118°17'0 0.0
2018-Apr-09 23:30N 33°43' W 118°17'0 0.0
2018-Apr-09 23:00N 33°43' W 118°17'0 0.0
2018-Apr-09 22:30N 33°43' W 118°17'0 0.0
2018-Apr-09 22:00N 33°43' W 118°17'0 0.0
2018-Apr-09 21:30N 33°43' W 118°17'0 0.0
2018-Apr-09 21:00N 33°43' W 118°17'0 0.0
2018-Apr-09 20:30N 33°43' W 118°17'0 0.0
2018-Apr-09 20:00N 33°43' W 118°17'0 0.0
2018-Apr-09 19:30N 33°43' W 118°17'1 1.7
2018-Apr-09 19:00N 33°43' W 118°16'5 9.5
2018-Apr-09 18:30N 33°41' W 118°11'510.4
2018-Apr-09 18:00N 33°39' W 118°05'510.3
2018-Apr-09 17:30N 33°37' W 117°59'510.2
2018-Apr-09 17:00N 33°35' W 117°53'2 3.6
2018-Apr-09 16:20N 33°37' W 117°55'0 0.1
2018-Apr-09 16:00N 33°37' W 117°55'0 0.0
2018-Apr-09 15:30N 33°37' W 117°55'0 0.0
2018-Apr-09 12:02N 33°37' W 117°55'0 0.0
2018-Apr-09 11:58N 33°37' W 117°55'0 0.0
2018-Apr-09 11:27N 33°37' W 117°55'0 0.0
2018-Apr-09 10:29N 33°37' W 117°55'0 0.0
2018-Apr-09 09:14N 33°37' W 117°55'0 0.0
2018-Apr-09 09:00N 33°37' W 117°55'0 0.0
2018-Apr-09 08:30N 33°37' W 117°55'0 0.0
2018-Apr-09 08:00N 33°37' W 117°55'0 0.0
2018-Apr-09 07:29N 33°37' W 117°55'0 0.0
2018-Apr-09 07:00N 33°37' W 117°55'0 0.0
2018-Apr-09 06:29N 33°37' W 117°55'0 0.0
2018-Apr-09 05:58N 33°37' W 117°55'0 0.0
2018-Apr-09 05:29N 33°37' W 117°55'0 0.0
2018-Apr-09 01:06N 33°37' W 117°55'0 0.0
2018-Apr-09 01:00N 33°37' W 117°55'  

Dump ship's entire track history